Kit Carson County Airport


Codes: KITR/
Name: Kit Carson County Airport
City: Burlington
Country: United States
Elevation: 4219 ft.

Photos at Kit Carson County Airport


   Photos courtesy of SpottingLog. You can add your own sightings and photos by signing up for a free trial today.



No photos found.

Weather at Kit Carson County Airport


Time (UTC)DescriptionTempratureWindCloud coverageVisibilityPressureHumidity
13-Jun-2024 03:00Clear Sky34°C25 mph, NW0%10000m1014hPa20%
13-Jun-2024 06:00Few Clouds31°C7 mph, W23%10000m1013hPa26%
13-Jun-2024 09:00Scattered Clouds27°C9 mph, W34%10000m1011hPa32%
13-Jun-2024 12:00Scattered Clouds22°C11 mph, W48%10000m1010hPa38%
13-Jun-2024 15:00Clear Sky32°C11 mph, SW0%10000m1009hPa23%
13-Jun-2024 18:00Clear Sky35°C2 mph, SW0%10000m1009hPa17%
13-Jun-2024 21:00Few Clouds38°C9 mph, E24%10000m1006hPa14%
14-Jun-2024 00:00Light Rain25°C22 mph, E46%10000m1011hPa39%
14-Jun-2024 03:00Scattered Clouds20°C13 mph, E49%10000m1015hPa71%
14-Jun-2024 06:00Broken Clouds21°C7 mph, NE74%10000m1015hPa64%
14-Jun-2024 09:00Broken Clouds18°C9 mph, NE60%10000m1016hPa86%
14-Jun-2024 12:00Broken Clouds17°C9 mph, SE77%10000m1016hPa94%
14-Jun-2024 15:00Light Rain23°C11 mph, SE98%10000m1014hPa69%
14-Jun-2024 18:00Broken Clouds30°C20 mph, S75%10000m1010hPa37%
14-Jun-2024 21:00Broken Clouds34°C29 mph, S61%10000m1006hPa28%
15-Jun-2024 00:00Light Rain22°C27 mph, S69%10000m1011hPa54%
15-Jun-2024 03:00Overcast Clouds20°C13 mph, SW100%10000m1011hPa64%
15-Jun-2024 06:00Overcast Clouds19°C9 mph, S96%10000m1010hPa67%
15-Jun-2024 09:00Overcast Clouds21°C18 mph, S90%10000m1007hPa57%
15-Jun-2024 12:00Overcast Clouds19°C13 mph, SW95%10000m1006hPa60%
15-Jun-2024 15:00Overcast Clouds27°C13 mph, NW100%10000m1005hPa35%
15-Jun-2024 18:00Broken Clouds31°C11 mph, NW75%10000m1004hPa23%
15-Jun-2024 21:00Clear Sky34°C7 mph, NW2%10000m1002hPa17%
16-Jun-2024 00:00Clear Sky34°C2 mph, W1%10000m1000hPa14%
16-Jun-2024 03:00Scattered Clouds26°C16 mph, W25%10000m1003hPa27%
16-Jun-2024 06:00Broken Clouds23°C4 mph, NE53%10000m1003hPa36%
16-Jun-2024 09:00Few Clouds23°C9 mph, S14%10000m1003hPa35%
16-Jun-2024 12:00Clear Sky22°C11 mph, SW7%10000m1003hPa38%
16-Jun-2024 15:00Clear Sky31°C9 mph, SW0%10000m1002hPa23%
16-Jun-2024 18:00Clear Sky35°C9 mph, E0%10000m1001hPa18%
16-Jun-2024 21:00Scattered Clouds37°C16 mph, SE40%10000m998hPa13%
17-Jun-2024 00:00Scattered Clouds37°C16 mph, S37%10000m995hPa11%
17-Jun-2024 03:00Few Clouds27°C29 mph, S13%10000m998hPa33%
17-Jun-2024 06:00Light Rain25°C9 mph, SW43%10000m1000hPa37%
17-Jun-2024 09:00Broken Clouds25°C18 mph, S80%10000m1000hPa36%
17-Jun-2024 12:00Scattered Clouds24°C16 mph, S40%10000m1000hPa53%
17-Jun-2024 15:00Clear Sky29°C13 mph, SW0%10000m1000hPa37%
17-Jun-2024 18:00Clear Sky33°C7 mph, S0%10000m999hPa28%
17-Jun-2024 21:00Broken Clouds36°C16 mph, SE79%10000m996hPa19%
18-Jun-2024 00:00Scattered Clouds36°C4 mph, S41%10000m992hPa14%